sensor_id;sensor_type;location;lat;lon;timestamp;pressure;altitude;pressure_sealevel;temperature;humidity
9239;BME280;4654;43.242;27.976;2022-07-06T00:02:10;99169.09;;;23.13;56.51
9239;BME280;4654;43.242;27.976;2022-07-06T00:04:37;99167.13;;;23.10;56.61
9239;BME280;4654;43.242;27.976;2022-07-06T00:07:04;99168.69;;;23.11;56.46
9239;BME280;4654;43.242;27.976;2022-07-06T00:09:32;99164.88;;;23.12;56.17
9239;BME280;4654;43.242;27.976;2022-07-06T00:11:59;99164.50;;;23.14;55.69
9239;BME280;4654;43.242;27.976;2022-07-06T00:14:27;99158.63;;;23.08;55.51
9239;BME280;4654;43.242;27.976;2022-07-06T00:16:54;99166.69;;;23.08;55.34
9239;BME280;4654;43.242;27.976;2022-07-06T00:19:21;99165.91;;;23.08;55.05
9239;BME280;4654;43.242;27.976;2022-07-06T00:21:48;99166.69;;;23.08;54.78
9239;BME280;4654;43.242;27.976;2022-07-06T00:24:15;99163.91;;;23.05;54.56
9239;BME280;4654;43.242;27.976;2022-07-06T00:26:43;99172.97;;;22.97;54.28
9239;BME280;4654;43.242;27.976;2022-07-06T00:29:10;99168.38;;;22.97;54.14
9239;BME280;4654;43.242;27.976;2022-07-06T00:31:38;99163.44;;;22.99;54.19
9239;BME280;4654;43.242;27.976;2022-07-06T00:34:05;99166.47;;;22.98;54.27
9239;BME280;4654;43.242;27.976;2022-07-06T00:36:32;99161.91;;;22.98;54.11
9239;BME280;4654;43.242;27.976;2022-07-06T00:38:59;99169.06;;;22.94;54.26
9239;BME280;4654;43.242;27.976;2022-07-06T00:41:26;99168.31;;;22.94;54.33
9239;BME280;4654;43.242;27.976;2022-07-06T00:43:54;99164.50;;;22.95;54.25
9239;BME280;4654;43.242;27.976;2022-07-06T00:46:25;99164.84;;;22.93;54.20
9239;BME280;4654;43.242;27.976;2022-07-06T00:48:54;99158.00;;;22.96;54.38
9239;BME280;4654;43.242;27.976;2022-07-06T00:51:25;99144.94;;;22.94;54.07
9239;BME280;4654;43.242;27.976;2022-07-06T00:53:55;99154.81;;;22.90;53.70
9239;BME280;4654;43.242;27.976;2022-07-06T00:56:25;99152.78;;;22.84;53.07
9239;BME280;4654;43.242;27.976;2022-07-06T00:58:52;99149.84;;;22.89;53.04
9239;BME280;4654;43.242;27.976;2022-07-06T01:01:19;99142.56;;;22.89;52.65
9239;BME280;4654;43.242;27.976;2022-07-06T01:03:46;99137.97;;;22.90;52.38
9239;BME280;4654;43.242;27.976;2022-07-06T01:06:15;99148.16;;;22.81;52.48
9239;BME280;4654;43.242;27.976;2022-07-06T01:08:42;99136.84;;;22.72;52.49
9239;BME280;4654;43.242;27.976;2022-07-06T01:11:09;99145.66;;;22.72;52.12
9239;BME280;4654;43.242;27.976;2022-07-06T01:13:37;99143.31;;;22.71;52.04
9239;BME280;4654;43.242;27.976;2022-07-06T01:16:04;99140.38;;;22.76;52.19
9239;BME280;4654;43.242;27.976;2022-07-06T01:18:32;99142.00;;;22.80;51.98
9239;BME280;4654;43.242;27.976;2022-07-06T01:21:11;99132.91;;;22.85;51.95
9239;BME280;4654;43.242;27.976;2022-07-06T01:23:40;99140.66;;;22.90;51.90
9239;BME280;4654;43.242;27.976;2022-07-06T01:26:12;99139.44;;;22.87;51.79
9239;BME280;4654;43.242;27.976;2022-07-06T01:28:40;99140.22;;;22.88;51.46
9239;BME280;4654;43.242;27.976;2022-07-06T01:31:13;99130.28;;;22.88;51.00
9239;BME280;4654;43.242;27.976;2022-07-06T01:33:40;99134.09;;;22.87;50.73
9239;BME280;4654;43.242;27.976;2022-07-06T01:36:08;99137.97;;;22.90;50.62
9239;BME280;4654;43.242;27.976;2022-07-06T01:38:47;99134.16;;;22.91;50.29
9239;BME280;4654;43.242;27.976;2022-07-06T01:41:14;99128.81;;;22.91;50.11
9239;BME280;4654;43.242;27.976;2022-07-06T01:43:41;99127.25;;;22.90;49.83
9239;BME280;4654;43.242;27.976;2022-07-06T01:46:09;99128.09;;;22.94;50.06
9239;BME280;4654;43.242;27.976;2022-07-06T01:48:35;99123.16;;;22.96;49.78
9239;BME280;4654;43.242;27.976;2022-07-06T01:51:03;99127.72;;;22.95;49.60
9239;BME280;4654;43.242;27.976;2022-07-06T01:53:30;99130.84;;;22.97;49.43
9239;BME280;4654;43.242;27.976;2022-07-06T01:55:58;99130.06;;;22.97;49.49
9239;BME280;4654;43.242;27.976;2022-07-06T01:58:25;99132.66;;;22.93;48.90
9239;BME280;4654;43.242;27.976;2022-07-06T02:00:52;99133.03;;;22.92;48.96
9239;BME280;4654;43.242;27.976;2022-07-06T02:03:19;99136.13;;;22.94;48.82
9239;BME280;4654;43.242;27.976;2022-07-06T02:05:46;99130.13;;;22.81;48.45
9239;BME280;4654;43.242;27.976;2022-07-06T02:08:13;99139.09;;;22.89;48.07
9239;BME280;4654;43.242;27.976;2022-07-06T02:10:40;99133.38;;;22.90;47.98
9239;BME280;4654;43.242;27.976;2022-07-06T02:13:08;99139.53;;;22.91;48.33
9239;BME280;4654;43.242;27.976;2022-07-06T02:15:35;99136.47;;;22.92;48.22
9239;BME280;4654;43.242;27.976;2022-07-06T02:18:02;99140.66;;;22.90;48.24
9239;BME280;4654;43.242;27.976;2022-07-06T02:20:29;99131.53;;;22.94;48.34
9239;BME280;4654;43.242;27.976;2022-07-06T02:22:56;99146.06;;;22.93;48.54
9239;BME280;4654;43.242;27.976;2022-07-06T02:25:23;99140.22;;;22.88;48.42
9239;BME280;4654;43.242;27.976;2022-07-06T02:27:50;99137.59;;;22.91;48.69
9239;BME280;4654;43.242;27.976;2022-07-06T02:30:18;99128.25;;;22.82;48.85
9239;BME280;4654;43.242;27.976;2022-07-06T02:32:45;99141.84;;;22.92;48.50
9239;BME280;4654;43.242;27.976;2022-07-06T02:35:12;99139.53;;;22.91;48.25
9239;BME280;4654;43.242;27.976;2022-07-06T02:37:39;99142.63;;;22.93;48.30
9239;BME280;4654;43.242;27.976;2022-07-06T02:40:07;99129.84;;;22.86;47.93
9239;BME280;4654;43.242;27.976;2022-07-06T02:42:34;99113.72;;;22.83;48.02
9239;BME280;4654;43.242;27.976;2022-07-06T02:45:01;99124.16;;;22.88;47.96
9239;BME280;4654;43.242;27.976;2022-07-06T02:47:29;99122.31;;;22.92;47.89
9239;BME280;4654;43.242;27.976;2022-07-06T02:49:56;99126.13;;;23.10;47.70
9239;BME280;4654;43.242;27.976;2022-07-06T02:52:23;99123.16;;;23.15;47.43
9239;BME280;4654;43.242;27.976;2022-07-06T02:54:50;99120.97;;;23.20;47.39
9239;BME280;4654;43.242;27.976;2022-07-06T02:57:19;99121.34;;;23.41;47.51
9239;BME280;4654;43.242;27.976;2022-07-06T02:59:46;99115.56;;;23.62;47.72
9239;BME280;4654;43.242;27.976;2022-07-06T03:02:15;99124.03;;;23.86;47.64
9239;BME280;4654;43.242;27.976;2022-07-06T03:04:43;99122.88;;;24.13;47.21
9239;BME280;4654;43.242;27.976;2022-07-06T03:07:10;99119.47;;;24.42;46.80
9239;BME280;4654;43.242;27.976;2022-07-06T03:09:37;99108.72;;;24.71;46.29
9239;BME280;4654;43.242;27.976;2022-07-06T03:12:04;99108.03;;;25.14;46.21
9239;BME280;4654;43.242;27.976;2022-07-06T03:14:31;99105.75;;;25.53;45.64
9239;BME280;4654;43.242;27.976;2022-07-06T03:16:58;99101.50;;;25.98;45.25
9239;BME280;4654;43.242;27.976;2022-07-06T03:19:25;99102.56;;;26.48;44.41
9239;BME280;4654;43.242;27.976;2022-07-06T03:21:53;99111.63;;;27.01;43.35
9239;BME280;4654;43.242;27.976;2022-07-06T03:24:20;99102.47;;;27.50;43.31
9239;BME280;4654;43.242;27.976;2022-07-06T03:26:47;99102.84;;;27.98;42.09
9239;BME280;4654;43.242;27.976;2022-07-06T03:29:14;99106.63;;;28.53;41.69
9239;BME280;4654;43.242;27.976;2022-07-06T03:31:41;99101.38;;;29.00;40.85
9239;BME280;4654;43.242;27.976;2022-07-06T03:34:08;99099.16;;;29.46;39.89
9239;BME280;4654;43.242;27.976;2022-07-06T03:36:35;99106.53;;;29.89;39.52
9239;BME280;4654;43.242;27.976;2022-07-06T03:39:03;99099.25;;;30.23;38.66
9239;BME280;4654;43.242;27.976;2022-07-06T03:41:30;99086.34;;;30.67;37.99
9239;BME280;4654;43.242;27.976;2022-07-06T03:43:58;99094.84;;;31.26;37.35
9239;BME280;4654;43.242;27.976;2022-07-06T03:46:25;99094.16;;;31.71;37.30
9239;BME280;4654;43.242;27.976;2022-07-06T03:48:52;99098.38;;;32.18;36.78
9239;BME280;4654;43.242;27.976;2022-07-06T03:51:19;99094.69;;;32.86;36.07
9239;BME280;4654;43.242;27.976;2022-07-06T03:53:46;99085.66;;;33.57;35.41
9239;BME280;4654;43.242;27.976;2022-07-06T03:56:14;99099.19;;;34.36;34.85
9239;BME280;4654;43.242;27.976;2022-07-06T03:59:00;99094.28;;;35.10;33.92
9239;BME280;4654;43.242;27.976;2022-07-06T04:01:27;99096.78;;;35.66;32.79
9239;BME280;4654;43.242;27.976;2022-07-06T04:03:55;99091.56;;;36.27;32.59
9239;BME280;4654;43.242;27.976;2022-07-06T04:06:22;99086.66;;;36.95;31.44
9239;BME280;4654;43.242;27.976;2022-07-06T04:08:49;99093.34;;;37.73;30.82
9239;BME280;4654;43.242;27.976;2022-07-06T04:11:17;99100.09;;;38.53;30.05
9239;BME280;4654;43.242;27.976;2022-07-06T04:13:44;99097.00;;;39.19;28.93
9239;BME280;4654;43.242;27.976;2022-07-06T04:16:11;99100.03;;;39.77;28.59
9239;BME280;4654;43.242;27.976;2022-07-06T04:18:38;99093.75;;;40.52;28.02
9239;BME280;4654;43.242;27.976;2022-07-06T04:21:05;99096.41;;;41.39;27.50
9239;BME280;4654;43.242;27.976;2022-07-06T04:23:32;99090.28;;;42.09;26.89
9239;BME280;4654;43.242;27.976;2022-07-06T04:25:59;99093.38;;;42.62;26.32
9239;BME280;4654;43.242;27.976;2022-07-06T04:28:27;99093.88;;;43.28;24.83
9239;BME280;4654;43.242;27.976;2022-07-06T04:30:54;99100.47;;;43.83;24.65
9239;BME280;4654;43.242;27.976;2022-07-06T04:33:21;99098.75;;;43.91;23.26
9239;BME280;4654;43.242;27.976;2022-07-06T04:35:48;99101.28;;;43.06;24.93
9239;BME280;4654;43.242;27.976;2022-07-06T04:38:14;99103.91;;;42.89;24.53
9239;BME280;4654;43.242;27.976;2022-07-06T04:40:41;99096.44;;;43.37;24.98
9239;BME280;4654;43.242;27.976;2022-07-06T04:43:08;99091.75;;;44.07;23.60
9239;BME280;4654;43.242;27.976;2022-07-06T04:45:36;99096.91;;;44.52;23.58
9239;BME280;4654;43.242;27.976;2022-07-06T04:48:04;99097.69;;;45.13;23.86
9239;BME280;4654;43.242;27.976;2022-07-06T04:50:31;99097.81;;;45.59;22.96
9239;BME280;4654;43.242;27.976;2022-07-06T04:52:58;99099.94;;;45.26;22.35
9239;BME280;4654;43.242;27.976;2022-07-06T04:55:25;99094.28;;;46.15;22.57
9239;BME280;4654;43.242;27.976;2022-07-06T04:57:52;99096.88;;;46.48;21.91
9239;BME280;4654;43.242;27.976;2022-07-06T05:00:20;99094.41;;;47.04;21.54
9239;BME280;4654;43.242;27.976;2022-07-06T05:02:49;99096.31;;;47.14;21.06
9239;BME280;4654;43.242;27.976;2022-07-06T05:05:15;99091.75;;;47.16;20.47
9239;BME280;4654;43.242;27.976;2022-07-06T05:07:42;99096.28;;;47.67;20.59
9239;BME280;4654;43.242;27.976;2022-07-06T05:10:10;99103.53;;;47.76;20.45
9239;BME280;4654;43.242;27.976;2022-07-06T05:12:38;99096.31;;;48.04;20.40
9239;BME280;4654;43.242;27.976;2022-07-06T05:15:06;99094.06;;;47.36;20.23
9239;BME280;4654;43.242;27.976;2022-07-06T05:17:33;99098.59;;;48.56;19.62
9239;BME280;4654;43.242;27.976;2022-07-06T05:20:01;99091.34;;;49.49;20.01
9239;BME280;4654;43.242;27.976;2022-07-06T05:22:28;99098.19;;;49.87;20.56
9239;BME280;4654;43.242;27.976;2022-07-06T05:24:55;99095.56;;;50.68;19.97
9239;BME280;4654;43.242;27.976;2022-07-06T05:27:22;99093.31;;;50.67;19.38
9239;BME280;4654;43.242;27.976;2022-07-06T05:29:49;99097.03;;;49.30;19.85
9239;BME280;4654;43.242;27.976;2022-07-06T05:32:16;99097.41;;;50.46;19.89
9239;BME280;4654;43.242;27.976;2022-07-06T05:34:43;99097.81;;;50.90;19.67
9239;BME280;4654;43.242;27.976;2022-07-06T05:37:11;99094.44;;;51.12;19.52
9239;BME280;4654;43.242;27.976;2022-07-06T05:39:38;99098.56;;;51.39;19.54
9239;BME280;4654;43.242;27.976;2022-07-06T05:42:09;99085.56;;;51.57;19.29
9239;BME280;4654;43.242;27.976;2022-07-06T05:44:36;99094.28;;;51.46;19.71
9239;BME280;4654;43.242;27.976;2022-07-06T05:47:03;99097.88;;;51.54;19.27
9239;BME280;4654;43.242;27.976;2022-07-06T05:49:44;99096.91;;;51.16;19.48
9239;BME280;4654;43.242;27.976;2022-07-06T05:52:29;99091.56;;;52.04;18.86
9239;BME280;4654;43.242;27.976;2022-07-06T05:54:56;99091.56;;;52.04;18.54
9239;BME280;4654;43.242;27.976;2022-07-06T05:57:23;99098.03;;;52.56;18.59
9239;BME280;4654;43.242;27.976;2022-07-06T05:59:50;99088.94;;;50.38;20.04
9239;BME280;4654;43.242;27.976;2022-07-06T06:02:17;99081.47;;;51.65;19.56
9239;BME280;4654;43.242;27.976;2022-07-06T06:04:44;99089.53;;;52.12;19.18
9239;BME280;4654;43.242;27.976;2022-07-06T06:07:10;99088.47;;;51.79;18.70
9239;BME280;4654;43.242;27.976;2022-07-06T06:09:39;99087.91;;;52.46;19.39
9239;BME280;4654;43.242;27.976;2022-07-06T06:12:06;99090.56;;;52.89;18.27
9239;BME280;4654;43.242;27.976;2022-07-06T06:14:33;99089.22;;;53.12;19.39
9239;BME280;4654;43.242;27.976;2022-07-06T06:17:00;99082.84;;;53.34;18.58
9239;BME280;4654;43.242;27.976;2022-07-06T06:19:28;99083.25;;;49.32;20.86
9239;BME280;4654;43.242;27.976;2022-07-06T06:21:55;99078.16;;;50.09;20.18
9239;BME280;4654;43.242;27.976;2022-07-06T06:24:22;99070.47;;;51.75;20.04
9239;BME280;4654;43.242;27.976;2022-07-06T06:26:51;99076.41;;;52.07;19.79
9239;BME280;4654;43.242;27.976;2022-07-06T06:29:18;99073.69;;;52.51;19.98
9239;BME280;4654;43.242;27.976;2022-07-06T06:31:45;99074.06;;;52.78;19.18
9239;BME280;4654;43.242;27.976;2022-07-06T06:34:11;99071.16;;;52.03;19.43
9239;BME280;4654;43.242;27.976;2022-07-06T06:36:38;99073.69;;;52.74;19.16
9239;BME280;4654;43.242;27.976;2022-07-06T06:39:05;99068.94;;;52.17;19.56
9239;BME280;4654;43.242;27.976;2022-07-06T06:41:32;99064.88;;;51.75;19.99
9239;BME280;4654;43.242;27.976;2022-07-06T06:44:00;99070.59;;;51.26;20.06
9239;BME280;4654;43.242;27.976;2022-07-06T06:46:27;99058.72;;;51.76;19.71
9239;BME280;4654;43.242;27.976;2022-07-06T06:48:54;99069.16;;;49.77;20.42
9239;BME280;4654;43.242;27.976;2022-07-06T06:51:21;99068.25;;;50.08;20.99
9239;BME280;4654;43.242;27.976;2022-07-06T06:53:48;99060.34;;;49.73;20.88
9239;BME280;4654;43.242;27.976;2022-07-06T06:56:15;99062.41;;;49.07;21.16
9239;BME280;4654;43.242;27.976;2022-07-06T06:58:42;99064.25;;;47.92;21.70
9239;BME280;4654;43.242;27.976;2022-07-06T07:01:10;99072.19;;;44.93;23.46
9239;BME280;4654;43.242;27.976;2022-07-06T07:03:37;99075.50;;;42.94;26.14
9239;BME280;4654;43.242;27.976;2022-07-06T07:06:05;99065.38;;;42.55;25.84
9239;BME280;4654;43.242;27.976;2022-07-06T07:08:32;99083.28;;;40.56;27.90
9239;BME280;4654;43.242;27.976;2022-07-06T07:10:59;99084.94;;;39.40;29.55
9239;BME280;4654;43.242;27.976;2022-07-06T07:13:25;99085.13;;;38.54;30.31
9239;BME280;4654;43.242;27.976;2022-07-06T07:15:52;99078.41;;;38.28;31.23
9239;BME280;4654;43.242;27.976;2022-07-06T07:18:21;99081.88;;;37.66;31.53
9239;BME280;4654;43.242;27.976;2022-07-06T07:20:47;99086.09;;;37.00;31.68
9239;BME280;4654;43.242;27.976;2022-07-06T07:23:14;99085.78;;;35.91;33.36
9239;BME280;4654;43.242;27.976;2022-07-06T07:25:41;99086.47;;;35.83;34.18
9239;BME280;4654;43.242;27.976;2022-07-06T07:28:08;99089.63;;;35.94;33.11
9239;BME280;4654;43.242;27.976;2022-07-06T07:30:35;99096.91;;;36.09;33.41
9239;BME280;4654;43.242;27.976;2022-07-06T07:33:02;99103.91;;;35.76;33.07
9239;BME280;4654;43.242;27.976;2022-07-06T07:35:30;99110.19;;;35.15;33.75
9239;BME280;4654;43.242;27.976;2022-07-06T07:37:57;99104.97;;;34.67;34.31
9239;BME280;4654;43.242;27.976;2022-07-06T07:40:24;99106.47;;;34.27;35.58
9239;BME280;4654;43.242;27.976;2022-07-06T07:42:52;99104.41;;;33.86;35.54
9239;BME280;4654;43.242;27.976;2022-07-06T07:45:19;99107.25;;;34.40;34.08
9239;BME280;4654;43.242;27.976;2022-07-06T07:47:46;99106.16;;;33.93;34.98
9239;BME280;4654;43.242;27.976;2022-07-06T07:50:13;99091.56;;;33.71;35.43
9239;BME280;4654;43.242;27.976;2022-07-06T07:52:41;99096.81;;;33.78;35.02
9239;BME280;4654;43.242;27.976;2022-07-06T07:55:09;99095.97;;;33.65;35.13
9239;BME280;4654;43.242;27.976;2022-07-06T07:57:36;99108.00;;;33.83;35.34
9239;BME280;4654;43.242;27.976;2022-07-06T08:00:04;99100.84;;;34.02;34.27
9239;BME280;4654;43.242;27.976;2022-07-06T08:02:31;99104.25;;;33.10;34.74
9239;BME280;4654;43.242;27.976;2022-07-06T08:04:58;99106.50;;;32.80;35.12
9239;BME280;4654;43.242;27.976;2022-07-06T08:07:25;99110.47;;;32.17;36.17
9239;BME280;4654;43.242;27.976;2022-07-06T08:09:53;99110.03;;;32.38;36.51
9239;BME280;4654;43.242;27.976;2022-07-06T08:12:20;99112.03;;;32.14;36.93
9239;BME280;4654;43.242;27.976;2022-07-06T08:14:47;99105.41;;;32.15;36.95
9239;BME280;4654;43.242;27.976;2022-07-06T08:17:14;99109.44;;;32.07;36.75
9239;BME280;4654;43.242;27.976;2022-07-06T08:19:40;99104.66;;;32.15;37.05
9239;BME280;4654;43.242;27.976;2022-07-06T08:22:07;99112.63;;;32.45;36.23
9239;BME280;4654;43.242;27.976;2022-07-06T08:24:35;99103.00;;;32.40;36.50
9239;BME280;4654;43.242;27.976;2022-07-06T08:27:04;99112.22;;;32.66;36.19
9239;BME280;4654;43.242;27.976;2022-07-06T08:29:31;99126.44;;;32.15;36.65
9239;BME280;4654;43.242;27.976;2022-07-06T08:31:57;99116.69;;;31.95;36.72
9239;BME280;4654;43.242;27.976;2022-07-06T08:34:24;99113.63;;;32.12;37.35
9239;BME280;4654;43.242;27.976;2022-07-06T08:36:51;99115.13;;;32.16;36.55
9239;BME280;4654;43.242;27.976;2022-07-06T08:39:18;99119.88;;;31.90;36.85
9239;BME280;4654;43.242;27.976;2022-07-06T08:41:46;99111.22;;;31.95;36.93
9239;BME280;4654;43.242;27.976;2022-07-06T08:44:15;99115.59;;;31.89;36.78
9239;BME280;4654;43.242;27.976;2022-07-06T08:46:43;99115.75;;;32.01;36.79
9239;BME280;4654;43.242;27.976;2022-07-06T08:49:13;99115.13;;;31.94;37.01
9239;BME280;4654;43.242;27.976;2022-07-06T08:51:41;99110.41;;;31.75;37.83
9239;BME280;4654;43.242;27.976;2022-07-06T08:54:09;99109.84;;;31.60;37.34
9239;BME280;4654;43.242;27.976;2022-07-06T08:56:37;99108.50;;;31.72;37.09
9239;BME280;4654;43.242;27.976;2022-07-06T08:59:05;99116.44;;;31.36;37.02
9239;BME280;4654;43.242;27.976;2022-07-06T09:01:38;99115.63;;;31.39;37.48
9239;BME280;4654;43.242;27.976;2022-07-06T09:04:05;99122.38;;;31.54;37.25
9239;BME280;4654;43.242;27.976;2022-07-06T09:06:33;99112.38;;;31.21;37.79
9239;BME280;4654;43.242;27.976;2022-07-06T09:09:05;99125.38;;;31.07;37.93
9239;BME280;4654;43.242;27.976;2022-07-06T09:11:32;99118.28;;;30.86;38.72
9239;BME280;4654;43.242;27.976;2022-07-06T09:13:59;99113.41;;;31.01;39.05
9239;BME280;4654;43.242;27.976;2022-07-06T09:16:27;99123.41;;;31.11;39.32
9239;BME280;4654;43.242;27.976;2022-07-06T09:18:56;99117.78;;;31.25;38.98
9239;BME280;4654;43.242;27.976;2022-07-06T09:21:24;99111.38;;;31.12;37.54
9239;BME280;4654;43.242;27.976;2022-07-06T09:23:54;99109.63;;;31.25;38.35
9239;BME280;4654;43.242;27.976;2022-07-06T09:26:22;99101.81;;;31.27;38.66
9239;BME280;4654;43.242;27.976;2022-07-06T09:28:49;99108.94;;;31.17;38.14
9239;BME280;4654;43.242;27.976;2022-07-06T09:31:16;99112.72;;;30.67;37.09
9239;BME280;4654;43.242;27.976;2022-07-06T09:33:58;99107.94;;;30.44;39.41
9239;BME280;4654;43.242;27.976;2022-07-06T09:36:42;99112.13;;;30.49;37.80
9239;BME280;4654;43.242;27.976;2022-07-06T09:39:20;99109.91;;;30.00;39.66
9239;BME280;4654;43.242;27.976;2022-07-06T09:41:49;99110.88;;;30.24;40.33
9239;BME280;4654;43.242;27.976;2022-07-06T09:44:21;99105.25;;;30.41;39.21
9239;BME280;4654;43.242;27.976;2022-07-06T09:46:50;99107.81;;;30.18;38.48
9239;BME280;4654;43.242;27.976;2022-07-06T09:49:19;99086.63;;;30.10;38.54
9239;BME280;4654;43.242;27.976;2022-07-06T09:51:47;99096.56;;;30.23;38.31
9239;BME280;4654;43.242;27.976;2022-07-06T09:54:15;99095.19;;;30.05;37.23
9239;BME280;4654;43.242;27.976;2022-07-06T09:56:43;99104.13;;;30.02;39.66
9239;BME280;4654;43.242;27.976;2022-07-06T09:59:15;99098.56;;;30.16;38.70
9239;BME280;4654;43.242;27.976;2022-07-06T10:01:42;99090.66;;;29.91;37.69
9239;BME280;4654;43.242;27.976;2022-07-06T10:04:11;99094.22;;;29.81;39.47
9239;BME280;4654;43.242;27.976;2022-07-06T10:06:41;99087.41;;;30.07;39.20
9239;BME280;4654;43.242;27.976;2022-07-06T10:09:09;99079.91;;;30.21;39.12
9239;BME280;4654;43.242;27.976;2022-07-06T10:11:38;99086.19;;;30.11;38.14
9239;BME280;4654;43.242;27.976;2022-07-06T10:14:06;99080.91;;;30.34;39.71
9239;BME280;4654;43.242;27.976;2022-07-06T10:16:35;99088.63;;;30.36;38.53
9239;BME280;4654;43.242;27.976;2022-07-06T10:19:05;99062.97;;;30.43;38.78
9239;BME280;4654;43.242;27.976;2022-07-06T10:21:34;99084.53;;;30.54;39.52
9239;BME280;4654;43.242;27.976;2022-07-06T10:24:04;99082.63;;;30.51;39.31
9239;BME280;4654;43.242;27.976;2022-07-06T10:26:32;99080.81;;;30.41;39.09
9239;BME280;4654;43.242;27.976;2022-07-06T10:29:00;99084.00;;;30.36;39.90
9239;BME280;4654;43.242;27.976;2022-07-06T10:31:28;99082.53;;;30.28;40.62
9239;BME280;4654;43.242;27.976;2022-07-06T10:33:57;99076.03;;;30.19;40.01
9239;BME280;4654;43.242;27.976;2022-07-06T10:36:25;99080.28;;;30.23;41.48
9239;BME280;4654;43.242;27.976;2022-07-06T10:38:52;99083.38;;;30.22;41.17
9239;BME280;4654;43.242;27.976;2022-07-06T10:41:30;99077.78;;;30.02;41.21
9239;BME280;4654;43.242;27.976;2022-07-06T10:43:56;99079.38;;;29.93;41.14
9239;BME280;4654;43.242;27.976;2022-07-06T10:46:28;99096.34;;;30.00;41.43
9239;BME280;4654;43.242;27.976;2022-07-06T10:48:56;99079.00;;;29.94;41.88
9239;BME280;4654;43.242;27.976;2022-07-06T10:51:24;99088.25;;;29.97;41.44
9239;BME280;4654;43.242;27.976;2022-07-06T10:53:55;99090.28;;;29.89;40.57
9239;BME280;4654;43.242;27.976;2022-07-06T10:56:32;99084.13;;;29.82;41.36
9239;BME280;4654;43.242;27.976;2022-07-06T10:59:02;99076.44;;;29.77;40.80
9239;BME280;4654;43.242;27.976;2022-07-06T11:01:29;99072.69;;;29.64;41.32
9239;BME280;4654;43.242;27.976;2022-07-06T11:04:06;99071.97;;;29.56;42.30
9239;BME280;4654;43.242;27.976;2022-07-06T11:06:36;99074.97;;;29.69;42.13
9239;BME280;4654;43.242;27.976;2022-07-06T11:09:04;99077.69;;;29.69;42.16
9239;BME280;4654;43.242;27.976;2022-07-06T11:11:41;99072.13;;;29.83;42.36
9239;BME280;4654;43.242;27.976;2022-07-06T11:14:10;99079.81;;;29.88;43.45
9239;BME280;4654;43.242;27.976;2022-07-06T11:16:39;99074.63;;;29.63;44.00
9239;BME280;4654;43.242;27.976;2022-07-06T11:19:09;99061.22;;;29.49;43.59
9239;BME280;4654;43.242;27.976;2022-07-06T11:21:54;99070.97;;;29.33;43.91
9239;BME280;4654;43.242;27.976;2022-07-06T11:24:25;99054.06;;;29.18;42.41
9239;BME280;4654;43.242;27.976;2022-07-06T11:26:55;99060.28;;;29.19;43.88
9239;BME280;4654;43.242;27.976;2022-07-06T11:29:24;99052.09;;;29.22;43.77
9239;BME280;4654;43.242;27.976;2022-07-06T11:31:53;99051.00;;;29.13;44.93
9239;BME280;4654;43.242;27.976;2022-07-06T11:34:22;99045.28;;;29.04;43.99
9239;BME280;4654;43.242;27.976;2022-07-06T11:36:54;99047.66;;;28.95;44.39
9239;BME280;4654;43.242;27.976;2022-07-06T11:39:21;99051.53;;;28.97;45.77
9239;BME280;4654;43.242;27.976;2022-07-06T11:41:48;99047.56;;;29.09;45.56
9239;BME280;4654;43.242;27.976;2022-07-06T11:44:17;99048.75;;;29.04;45.89
9239;BME280;4654;43.242;27.976;2022-07-06T11:46:44;99052.59;;;29.07;47.03
9239;BME280;4654;43.242;27.976;2022-07-06T11:49:11;99051.34;;;29.22;47.54
9239;BME280;4654;43.242;27.976;2022-07-06T11:51:40;99045.63;;;29.06;46.71
9239;BME280;4654;43.242;27.976;2022-07-06T11:54:11;99039.47;;;29.02;46.28
9239;BME280;4654;43.242;27.976;2022-07-06T11:56:45;99035.91;;;29.12;45.99
9239;BME280;4654;43.242;27.976;2022-07-06T11:59:15;99030.84;;;29.21;46.29
9239;BME280;4654;43.242;27.976;2022-07-06T12:01:43;99035.03;;;29.29;46.77
9239;BME280;4654;43.242;27.976;2022-07-06T12:04:11;99036.28;;;29.17;46.62
9239;BME280;4654;43.242;27.976;2022-07-06T12:06:38;99034.44;;;29.07;47.64
9239;BME280;4654;43.242;27.976;2022-07-06T12:09:05;99040.34;;;28.85;48.99
9239;BME280;4654;43.242;27.976;2022-07-06T12:11:34;99041.44;;;28.98;48.61
9239;BME280;4654;43.242;27.976;2022-07-06T12:14:12;99038.31;;;29.03;48.45
9239;BME280;4654;43.242;27.976;2022-07-06T12:16:41;99032.53;;;29.01;49.18
9239;BME280;4654;43.242;27.976;2022-07-06T12:19:08;99036.38;;;29.03;49.35
9239;BME280;4654;43.242;27.976;2022-07-06T12:21:42;99028.69;;;28.98;49.55
9239;BME280;4654;43.242;27.976;2022-07-06T12:24:09;99024.84;;;28.96;48.73
9239;BME280;4654;43.242;27.976;2022-07-06T12:26:39;99024.50;;;28.83;50.21
9239;BME280;4654;43.242;27.976;2022-07-06T12:29:08;99022.16;;;28.85;50.47
9239;BME280;4654;43.242;27.976;2022-07-06T12:31:39;99022.22;;;28.78;51.11
9239;BME280;4654;43.242;27.976;2022-07-06T12:34:14;99018.00;;;28.67;51.32
9239;BME280;4654;43.242;27.976;2022-07-06T12:36:42;99016.19;;;28.47;50.21
9239;BME280;4654;43.242;27.976;2022-07-06T12:39:12;99017.34;;;28.53;52.14
9239;BME280;4654;43.242;27.976;2022-07-06T12:41:44;99015.44;;;28.50;51.17
9239;BME280;4654;43.242;27.976;2022-07-06T12:44:12;99014.28;;;28.47;51.35
9239;BME280;4654;43.242;27.976;2022-07-06T12:46:41;99013.13;;;28.45;52.28
9239;BME280;4654;43.242;27.976;2022-07-06T12:49:14;99009.31;;;28.35;51.49
9239;BME280;4654;43.242;27.976;2022-07-06T12:51:59;99004.75;;;28.15;52.50
9239;BME280;4654;43.242;27.976;2022-07-06T12:54:28;99016.72;;;28.14;52.60
9239;BME280;4654;43.242;27.976;2022-07-06T12:57:00;99002.81;;;28.05;53.31
9239;BME280;4654;43.242;27.976;2022-07-06T12:59:28;98998.97;;;27.99;53.36
9239;BME280;4654;43.242;27.976;2022-07-06T13:01:56;98998.19;;;28.05;53.94
9239;BME280;4654;43.242;27.976;2022-07-06T13:04:26;98999.34;;;28.15;53.07
9239;BME280;4654;43.242;27.976;2022-07-06T13:06:53;98989.25;;;28.29;52.93
9239;BME280;4654;43.242;27.976;2022-07-06T13:09:21;98995.84;;;28.14;54.09
9239;BME280;4654;43.242;27.976;2022-07-06T13:11:48;98989.69;;;28.14;53.84
9239;BME280;4654;43.242;27.976;2022-07-06T13:14:17;98995.91;;;28.00;54.20
9239;BME280;4654;43.242;27.976;2022-07-06T13:16:45;98990.84;;;28.06;54.83